KCHD/CHD METAR and TAF weather

Enter ICAO airport designator
Station Type Date Time Source
KCHD METAR 2021/05/10 00:47 UTC NOAA

KCHD 100047Z 29007G20KT 10SM SKC 33/M08 A2972


Station Type Date Time Source
KCHD Decoded METAR 2021/05/10 00:47 UTC NOAA

Chandler, Chandler Municipal Airport, AZ, United States (KCHD) 33-16-09N 111-48-40W
May 09, 2021 - 08:47 PM EDT / 2021.05.10 0047 UTC
Wind: from the WNW (290 degrees) at 8 MPH (7 KT) gusting to 23 MPH (20 KT):0
Visibility: 10 mile(s):0
Sky conditions: clear
Temperature: 91 F (33 C)
Dew Point: 17 F (-8 C)
Relative Humidity: 6%
Pressure (altimeter): 29.72 in. Hg (1006 hPa)
ob: KCHD 100047Z 29007G20KT 10SM SKC 33/M08 A2972
cycle: 1

Station Type Date Time Source
KCHD TAF UTC NOAA

Error!

Example: see airport list